Terminal Aerodrome Forecast
Issued by NWS Pendleton, OR

Home | Current Version | Previous Version | Text Only | Print | Product List | Glossary On
Versions: 1 2 3 4 5 6 7 8 9 10 11 12 13 14 15 16
000
FTUS46 KPDT 071720
TAFPDT
TAF
KPDT 071720Z 0718/0818 14006KT P6SM SCT070
     FM072200 04006KT P6SM SCT070
     FM080300 09005KT P6SM FEW070 SCT250
     FM081200 12005KT P6SM SCT150 BKN200
     FM081700 32005KT P6SM VCSH BKN060 OVC090=

USA.gov is the U.S. government's official web portal to all federal, state and local government web resources and services.